Mc Clelland, Iowa
Current Conditions -  °F | °C
As of 6:15 PM on Saturday 25 Oct 2014 (Local Time) from KCBF Reporting Station
Clear Clear  
Wind Chill: 66°   Ceiling: Unl
Heat Index: 66°   Visibility: 10mi
Dew Point: 43°   Wind: 6mph
Humidity: 43%   Direction: 60°ENE
Pressure: 30.03"   Gusts: NA
Location:  41.3329°N, 95.6819°W
Report Text: KCBF 252315Z AUTO 06005KT 10SM CLR 19/06 A3003 RMK AO2
Loading
Personal Weather Stations






























Interactive Weather Map
Tropical Storm Tracking
New forecast layout! Learn more

10-Day Weather Forecast

Advertisements
Track Severe Weather on mobile